sensor_id;sensor_type;location;lat;lon;timestamp;pressure;altitude;pressure_sealevel;temperature;humidity
60267;BME280;46125;61.360;-149.532;2023-05-16T00:00:14;100693.99;;;15.82;27.31
60267;BME280;46125;61.360;-149.532;2023-05-16T00:02:43;100699.78;;;15.34;28.49
60267;BME280;46125;61.360;-149.532;2023-05-16T00:05:12;100700.39;;;15.50;28.15
60267;BME280;46125;61.360;-149.532;2023-05-16T00:07:42;100705.72;;;14.99;29.82
60267;BME280;46125;61.360;-149.532;2023-05-16T00:10:11;100698.88;;;14.65;28.96
60267;BME280;46125;61.360;-149.532;2023-05-16T00:12:40;100700.23;;;15.19;29.38
60267;BME280;46125;61.360;-149.532;2023-05-16T00:15:09;100701.67;;;14.86;29.94
60267;BME280;46125;61.360;-149.532;2023-05-16T00:17:38;100700.93;;;14.57;30.89
60267;BME280;46125;61.360;-149.532;2023-05-16T00:20:08;100698.54;;;14.21;30.22
60267;BME280;46125;61.360;-149.532;2023-05-16T00:22:36;100701.28;;;14.87;29.02
60267;BME280;46125;61.360;-149.532;2023-05-16T00:25:06;100691.85;;;14.99;29.95
60267;BME280;46125;61.360;-149.532;2023-05-16T00:27:35;100689.00;;;15.46;28.12
60267;BME280;46125;61.360;-149.532;2023-05-16T00:30:04;100689.75;;;15.25;28.63
60267;BME280;46125;61.360;-149.532;2023-05-16T00:32:33;100689.72;;;15.05;29.83
60267;BME280;46125;61.360;-149.532;2023-05-16T00:35:01;100691.26;;;14.60;29.92
60267;BME280;46125;61.360;-149.532;2023-05-16T00:37:30;100688.56;;;13.97;29.63
60267;BME280;46125;61.360;-149.532;2023-05-16T00:39:58;100693.96;;;14.03;31.33
60267;BME280;46125;61.360;-149.532;2023-05-16T00:42:27;100700.02;;;14.17;31.01
60267;BME280;46125;61.360;-149.532;2023-05-16T00:44:55;100690.40;;;14.01;30.82
60267;BME280;46125;61.360;-149.532;2023-05-16T00:47:24;100685.89;;;13.79;30.72
60267;BME280;46125;61.360;-149.532;2023-05-16T00:49:52;100679.72;;;13.66;31.48
60267;BME280;46125;61.360;-149.532;2023-05-16T00:52:21;100682.01;;;13.46;32.39
60267;BME280;46125;61.360;-149.532;2023-05-16T00:54:50;100678.49;;;13.60;31.50
60267;BME280;46125;61.360;-149.532;2023-05-16T00:57:19;100685.77;;;13.49;32.57
60267;BME280;46125;61.360;-149.532;2023-05-16T00:59:47;100673.76;;;13.92;30.04
60267;BME280;46125;61.360;-149.532;2023-05-16T01:02:17;100679.05;;;14.15;31.14
60267;BME280;46125;61.360;-149.532;2023-05-16T01:04:46;100676.98;;;13.70;32.12
60267;BME280;46125;61.360;-149.532;2023-05-16T01:07:15;100679.87;;;14.91;29.73
60267;BME280;46125;61.360;-149.532;2023-05-16T01:09:44;100679.50;;;14.57;29.56
60267;BME280;46125;61.360;-149.532;2023-05-16T01:12:18;100672.54;;;14.34;29.19
60267;BME280;46125;61.360;-149.532;2023-05-16T01:14:58;100667.72;;;15.15;29.08
60267;BME280;46125;61.360;-149.532;2023-05-16T01:17:37;100672.65;;;15.12;29.85
60267;BME280;46125;61.360;-149.532;2023-05-16T01:20:19;100676.71;;;15.36;29.22
60267;BME280;46125;61.360;-149.532;2023-05-16T01:23:04;100666.07;;;14.50;30.44
60267;BME280;46125;61.360;-149.532;2023-05-16T01:25:45;100660.31;;;15.54;28.61
60267;BME280;46125;61.360;-149.532;2023-05-16T01:28:16;100644.81;;;15.16;28.22
60267;BME280;46125;61.360;-149.532;2023-05-16T01:30:45;100651.56;;;15.12;29.12
60267;BME280;46125;61.360;-149.532;2023-05-16T01:33:13;100653.52;;;14.62;28.99
60267;BME280;46125;61.360;-149.532;2023-05-16T01:35:50;100643.60;;;14.64;29.62
60267;BME280;46125;61.360;-149.532;2023-05-16T01:38:25;100647.09;;;14.57;29.84
60267;BME280;46125;61.360;-149.532;2023-05-16T01:40:58;100642.13;;;14.53;29.71
60267;BME280;46125;61.360;-149.532;2023-05-16T01:43:41;100641.25;;;14.18;29.92
60267;BME280;46125;61.360;-149.532;2023-05-16T01:46:12;100644.51;;;14.26;30.74
60267;BME280;46125;61.360;-149.532;2023-05-16T01:48:48;100640.02;;;14.24;30.12
60267;BME280;46125;61.360;-149.532;2023-05-16T01:51:21;100636.09;;;14.45;29.49
60267;BME280;46125;61.360;-149.532;2023-05-16T01:53:52;100646.48;;;13.81;30.58
60267;BME280;46125;61.360;-149.532;2023-05-16T01:56:26;100653.35;;;14.14;29.99
60267;BME280;46125;61.360;-149.532;2023-05-16T01:58:57;100644.74;;;14.98;29.16
60267;BME280;46125;61.360;-149.532;2023-05-16T02:01:26;100649.87;;;15.17;29.27
60267;BME280;46125;61.360;-149.532;2023-05-16T02:03:57;100641.52;;;15.21;28.13
60267;BME280;46125;61.360;-149.532;2023-05-16T02:06:25;100637.95;;;16.28;27.54
60267;BME280;46125;61.360;-149.532;2023-05-16T02:08:55;100630.71;;;18.11;24.49
60267;BME280;46125;61.360;-149.532;2023-05-16T02:11:23;100626.83;;;18.44;24.05
60267;BME280;46125;61.360;-149.532;2023-05-16T02:13:52;100632.98;;;17.80;23.86
60267;BME280;46125;61.360;-149.532;2023-05-16T02:16:20;100637.73;;;18.17;24.99
60267;BME280;46125;61.360;-149.532;2023-05-16T02:18:49;100631.88;;;16.90;25.67
60267;BME280;46125;61.360;-149.532;2023-05-16T02:21:27;100633.33;;;16.15;27.36
60267;BME280;46125;61.360;-149.532;2023-05-16T02:23:55;100631.83;;;15.58;27.58
60267;BME280;46125;61.360;-149.532;2023-05-16T02:26:24;100628.94;;;14.68;28.65
60267;BME280;46125;61.360;-149.532;2023-05-16T02:28:52;100632.70;;;15.35;28.68
60267;BME280;46125;61.360;-149.532;2023-05-16T02:31:27;100626.62;;;15.12;28.13
60267;BME280;46125;61.360;-149.532;2023-05-16T02:33:57;100636.10;;;14.51;29.64
60267;BME280;46125;61.360;-149.532;2023-05-16T02:36:25;100628.67;;;14.42;29.39
60267;BME280;46125;61.360;-149.532;2023-05-16T02:38:53;100627.27;;;14.67;30.20
60267;BME280;46125;61.360;-149.532;2023-05-16T02:41:22;100621.10;;;13.12;30.44
60267;BME280;46125;61.360;-149.532;2023-05-16T02:43:50;100616.27;;;12.43;30.75
60267;BME280;46125;61.360;-149.532;2023-05-16T02:46:23;100609.32;;;13.01;30.45
60267;BME280;46125;61.360;-149.532;2023-05-16T02:48:52;100610.16;;;12.46;31.64
60267;BME280;46125;61.360;-149.532;2023-05-16T02:51:21;100608.58;;;12.54;32.07
60267;BME280;46125;61.360;-149.532;2023-05-16T02:53:50;100610.19;;;12.03;32.28
60267;BME280;46125;61.360;-149.532;2023-05-16T02:56:19;100597.63;;;12.69;31.52
60267;BME280;46125;61.360;-149.532;2023-05-16T02:58:49;100595.82;;;12.57;33.44
60267;BME280;46125;61.360;-149.532;2023-05-16T03:01:18;100590.14;;;11.99;32.52
60267;BME280;46125;61.360;-149.532;2023-05-16T03:03:46;100588.84;;;11.98;32.54
60267;BME280;46125;61.360;-149.532;2023-05-16T03:06:15;100590.83;;;12.61;32.88
60267;BME280;46125;61.360;-149.532;2023-05-16T03:08:43;100588.15;;;12.38;30.81
60267;BME280;46125;61.360;-149.532;2023-05-16T03:11:13;100592.06;;;12.63;32.31
60267;BME280;46125;61.360;-149.532;2023-05-16T03:13:41;100585.88;;;12.45;31.04
60267;BME280;46125;61.360;-149.532;2023-05-16T03:16:10;100574.15;;;12.38;31.56
60267;BME280;46125;61.360;-149.532;2023-05-16T03:18:43;100575.17;;;12.32;32.30
60267;BME280;46125;61.360;-149.532;2023-05-16T03:21:12;100562.89;;;11.94;32.02
60267;BME280;46125;61.360;-149.532;2023-05-16T03:23:40;100567.40;;;11.58;33.08
60267;BME280;46125;61.360;-149.532;2023-05-16T03:26:09;100563.89;;;11.38;33.82
60267;BME280;46125;61.360;-149.532;2023-05-16T03:28:37;100558.39;;;10.99;33.78
60267;BME280;46125;61.360;-149.532;2023-05-16T03:31:07;100549.45;;;11.34;32.43
60267;BME280;46125;61.360;-149.532;2023-05-16T03:33:45;100548.87;;;10.93;33.93
60267;BME280;46125;61.360;-149.532;2023-05-16T03:36:13;100560.50;;;10.92;34.28
60267;BME280;46125;61.360;-149.532;2023-05-16T03:38:42;100554.00;;;10.57;35.28
60267;BME280;46125;61.360;-149.532;2023-05-16T03:41:11;100548.84;;;10.38;35.06
60267;BME280;46125;61.360;-149.532;2023-05-16T03:43:39;100554.39;;;10.50;35.52
60267;BME280;46125;61.360;-149.532;2023-05-16T03:46:08;100552.99;;;10.42;34.81
60267;BME280;46125;61.360;-149.532;2023-05-16T03:48:37;100548.05;;;10.91;35.42
60267;BME280;46125;61.360;-149.532;2023-05-16T03:51:06;100545.72;;;10.90;33.26
60267;BME280;46125;61.360;-149.532;2023-05-16T03:53:35;100557.75;;;10.93;34.50
60267;BME280;46125;61.360;-149.532;2023-05-16T03:56:08;100555.59;;;11.04;33.65
60267;BME280;46125;61.360;-149.532;2023-05-16T03:58:37;100544.01;;;11.16;33.14
60267;BME280;46125;61.360;-149.532;2023-05-16T04:01:06;100547.38;;;10.64;34.04
60267;BME280;46125;61.360;-149.532;2023-05-16T04:03:34;100545.65;;;10.77;34.73
60267;BME280;46125;61.360;-149.532;2023-05-16T04:06:03;100544.04;;;10.50;34.87
60267;BME280;46125;61.360;-149.532;2023-05-16T04:08:31;100542.65;;;10.37;34.47
60267;BME280;46125;61.360;-149.532;2023-05-16T04:11:00;100536.43;;;10.86;34.42
60267;BME280;46125;61.360;-149.532;2023-05-16T04:13:29;100529.40;;;10.80;34.64
60267;BME280;46125;61.360;-149.532;2023-05-16T04:16:07;100533.21;;;10.86;34.69
60267;BME280;46125;61.360;-149.532;2023-05-16T04:18:36;100526.68;;;10.47;34.45
60267;BME280;46125;61.360;-149.532;2023-05-16T04:21:05;100525.60;;;10.11;35.51
60267;BME280;46125;61.360;-149.532;2023-05-16T04:23:33;100529.80;;;10.40;35.17
60267;BME280;46125;61.360;-149.532;2023-05-16T04:26:02;100531.40;;;10.32;35.62
60267;BME280;46125;61.360;-149.532;2023-05-16T04:28:30;100527.66;;;10.61;35.64
60267;BME280;46125;61.360;-149.532;2023-05-16T04:30:59;100527.81;;;10.39;36.37
60267;BME280;46125;61.360;-149.532;2023-05-16T04:33:28;100524.97;;;10.09;36.62
60267;BME280;46125;61.360;-149.532;2023-05-16T04:36:03;100520.76;;;9.95;36.97
60267;BME280;46125;61.360;-149.532;2023-05-16T04:38:32;100508.69;;;9.69;36.84
60267;BME280;46125;61.360;-149.532;2023-05-16T04:41:00;100515.06;;;10.10;36.44
60267;BME280;46125;61.360;-149.532;2023-05-16T04:43:29;100516.02;;;10.23;36.03
60267;BME280;46125;61.360;-149.532;2023-05-16T04:45:57;100512.81;;;10.19;35.71
60267;BME280;46125;61.360;-149.532;2023-05-16T04:48:26;100503.17;;;9.93;36.85
60267;BME280;46125;61.360;-149.532;2023-05-16T04:50:54;100506.13;;;9.92;36.72
60267;BME280;46125;61.360;-149.532;2023-05-16T04:53:28;100511.83;;;9.79;36.88
60267;BME280;46125;61.360;-149.532;2023-05-16T04:55:56;100513.36;;;9.78;37.26
60267;BME280;46125;61.360;-149.532;2023-05-16T04:58:25;100502.96;;;9.78;37.21
60267;BME280;46125;61.360;-149.532;2023-05-16T05:01:08;100500.28;;;9.92;36.98
60267;BME280;46125;61.360;-149.532;2023-05-16T05:03:47;100495.48;;;9.87;36.64
60267;BME280;46125;61.360;-149.532;2023-05-16T05:06:15;100490.86;;;10.01;37.51
60267;BME280;46125;61.360;-149.532;2023-05-16T05:08:43;100490.02;;;9.84;37.18
60267;BME280;46125;61.360;-149.532;2023-05-16T05:11:13;100484.06;;;9.74;37.03
60267;BME280;46125;61.360;-149.532;2023-05-16T05:13:48;100485.01;;;10.01;38.21
60267;BME280;46125;61.360;-149.532;2023-05-16T05:16:17;100483.81;;;9.79;37.31
60267;BME280;46125;61.360;-149.532;2023-05-16T05:18:47;100480.42;;;9.87;37.65
60267;BME280;46125;61.360;-149.532;2023-05-16T05:21:16;100473.35;;;9.96;38.02
60267;BME280;46125;61.360;-149.532;2023-05-16T05:24:07;100483.31;;;10.11;37.46
60267;BME280;46125;61.360;-149.532;2023-05-16T05:26:40;100482.60;;;10.09;37.41
60267;BME280;46125;61.360;-149.532;2023-05-16T05:29:09;100476.31;;;10.28;36.94
60267;BME280;46125;61.360;-149.532;2023-05-16T05:31:38;100485.76;;;10.32;36.84
60267;BME280;46125;61.360;-149.532;2023-05-16T05:34:06;100472.62;;;10.06;38.22
60267;BME280;46125;61.360;-149.532;2023-05-16T05:36:34;100483.31;;;10.16;37.58
60267;BME280;46125;61.360;-149.532;2023-05-16T05:39:08;100478.56;;;10.29;37.42
60267;BME280;46125;61.360;-149.532;2023-05-16T05:41:37;100480.53;;;9.99;37.04
60267;BME280;46125;61.360;-149.532;2023-05-16T05:44:06;100484.93;;;10.33;37.04
60267;BME280;46125;61.360;-149.532;2023-05-16T05:46:35;100473.48;;;10.29;37.50
60267;BME280;46125;61.360;-149.532;2023-05-16T05:49:03;100468.10;;;10.07;37.29
60267;BME280;46125;61.360;-149.532;2023-05-16T05:51:32;100470.66;;;10.40;37.21
60267;BME280;46125;61.360;-149.532;2023-05-16T05:54:01;100468.89;;;10.13;37.27
60267;BME280;46125;61.360;-149.532;2023-05-16T05:56:30;100473.62;;;10.28;38.05
60267;BME280;46125;61.360;-149.532;2023-05-16T05:58:58;100469.96;;;10.14;38.00
60267;BME280;46125;61.360;-149.532;2023-05-16T06:01:27;100471.26;;;10.03;38.45
60267;BME280;46125;61.360;-149.532;2023-05-16T06:03:55;100467.40;;;9.96;37.37
60267;BME280;46125;61.360;-149.532;2023-05-16T06:06:24;100463.06;;;10.55;36.28
60267;BME280;46125;61.360;-149.532;2023-05-16T06:08:52;100456.40;;;10.42;37.34
60267;BME280;46125;61.360;-149.532;2023-05-16T06:11:21;100463.29;;;10.73;36.59
60267;BME280;46125;61.360;-149.532;2023-05-16T06:13:50;100465.78;;;10.57;37.47
60267;BME280;46125;61.360;-149.532;2023-05-16T06:16:22;100465.45;;;9.86;38.07
60267;BME280;46125;61.360;-149.532;2023-05-16T06:18:56;100461.48;;;10.45;36.99
60267;BME280;46125;61.360;-149.532;2023-05-16T06:21:25;100457.28;;;10.34;37.02
60267;BME280;46125;61.360;-149.532;2023-05-16T06:23:54;100457.30;;;11.42;36.73
60267;BME280;46125;61.360;-149.532;2023-05-16T06:26:23;100456.30;;;10.92;36.57
60267;BME280;46125;61.360;-149.532;2023-05-16T06:28:54;100459.30;;;11.33;35.68
60267;BME280;46125;61.360;-149.532;2023-05-16T06:31:24;100452.62;;;10.79;36.57
60267;BME280;46125;61.360;-149.532;2023-05-16T06:33:53;100444.15;;;10.74;36.52
60267;BME280;46125;61.360;-149.532;2023-05-16T06:36:21;100435.24;;;10.82;36.24
60267;BME280;46125;61.360;-149.532;2023-05-16T06:38:49;100436.51;;;10.99;37.04
60267;BME280;46125;61.360;-149.532;2023-05-16T06:41:18;100434.22;;;10.88;36.40
60267;BME280;46125;61.360;-149.532;2023-05-16T06:43:47;100441.28;;;11.09;36.19
60267;BME280;46125;61.360;-149.532;2023-05-16T06:46:15;100440.38;;;11.19;36.46
60267;BME280;46125;61.360;-149.532;2023-05-16T06:48:45;100425.52;;;10.61;37.04
60267;BME280;46125;61.360;-149.532;2023-05-16T06:51:15;100426.88;;;11.05;36.60
60267;BME280;46125;61.360;-149.532;2023-05-16T06:53:43;100419.17;;;11.00;36.24
60267;BME280;46125;61.360;-149.532;2023-05-16T06:56:12;100414.53;;;11.00;37.39
60267;BME280;46125;61.360;-149.532;2023-05-16T06:58:40;100409.18;;;10.72;37.33
60267;BME280;46125;61.360;-149.532;2023-05-16T07:01:14;100415.84;;;10.52;37.33
60267;BME280;46125;61.360;-149.532;2023-05-16T07:03:44;100404.56;;;10.45;37.71
60267;BME280;46125;61.360;-149.532;2023-05-16T07:06:24;100407.55;;;10.78;37.23
60267;BME280;46125;61.360;-149.532;2023-05-16T07:08:53;100399.47;;;10.56;37.27
60267;BME280;46125;61.360;-149.532;2023-05-16T07:11:21;100398.69;;;10.69;37.45
60267;BME280;46125;61.360;-149.532;2023-05-16T07:13:52;100409.95;;;10.34;37.64
60267;BME280;46125;61.360;-149.532;2023-05-16T07:16:20;100414.37;;;10.35;38.11
60267;BME280;46125;61.360;-149.532;2023-05-16T07:18:49;100406.15;;;10.48;38.58
60267;BME280;46125;61.360;-149.532;2023-05-16T07:21:18;100402.91;;;10.65;37.88
60267;BME280;46125;61.360;-149.532;2023-05-16T07:23:47;100407.40;;;10.57;38.79
60267;BME280;46125;61.360;-149.532;2023-05-16T07:26:15;100392.14;;;10.04;39.70
60267;BME280;46125;61.360;-149.532;2023-05-16T07:28:44;100388.09;;;10.00;39.84
60267;BME280;46125;61.360;-149.532;2023-05-16T07:31:12;100392.96;;;10.33;39.54
60267;BME280;46125;61.360;-149.532;2023-05-16T07:33:46;100395.95;;;10.28;39.25
60267;BME280;46125;61.360;-149.532;2023-05-16T07:36:14;100394.84;;;10.31;39.30
60267;BME280;46125;61.360;-149.532;2023-05-16T07:38:43;100392.40;;;10.11;40.67
60267;BME280;46125;61.360;-149.532;2023-05-16T07:41:12;100379.52;;;10.14;40.13
60267;BME280;46125;61.360;-149.532;2023-05-16T07:43:40;100381.95;;;10.59;39.21
60267;BME280;46125;61.360;-149.532;2023-05-16T07:46:09;100379.72;;;10.62;39.27
60267;BME280;46125;61.360;-149.532;2023-05-16T07:48:39;100366.78;;;10.67;39.07
60267;BME280;46125;61.360;-149.532;2023-05-16T07:51:07;100368.66;;;10.50;40.08
60267;BME280;46125;61.360;-149.532;2023-05-16T07:53:37;100372.73;;;10.31;39.95
60267;BME280;46125;61.360;-149.532;2023-05-16T07:56:06;100379.58;;;10.47;39.30
60267;BME280;46125;61.360;-149.532;2023-05-16T07:58:35;100374.75;;;10.65;39.47
60267;BME280;46125;61.360;-149.532;2023-05-16T08:01:13;100377.48;;;10.56;39.76
60267;BME280;46125;61.360;-149.532;2023-05-16T08:03:42;100358.74;;;10.82;39.80
60267;BME280;46125;61.360;-149.532;2023-05-16T08:06:11;100366.30;;;10.31;41.06
60267;BME280;46125;61.360;-149.532;2023-05-16T08:08:39;100361.04;;;10.05;40.79
60267;BME280;46125;61.360;-149.532;2023-05-16T08:11:08;100359.74;;;10.27;40.56
60267;BME280;46125;61.360;-149.532;2023-05-16T08:13:36;100353.99;;;10.74;39.93
60267;BME280;46125;61.360;-149.532;2023-05-16T08:16:06;100362.88;;;10.57;39.87
60267;BME280;46125;61.360;-149.532;2023-05-16T08:18:34;100359.43;;;10.42;39.69
60267;BME280;46125;61.360;-149.532;2023-05-16T08:21:03;100370.47;;;11.07;38.89
60267;BME280;46125;61.360;-149.532;2023-05-16T08:23:31;100373.39;;;11.14;38.32
60267;BME280;46125;61.360;-149.532;2023-05-16T08:26:00;100378.26;;;10.89;39.87
60267;BME280;46125;61.360;-149.532;2023-05-16T08:28:29;100374.36;;;11.04;38.79
60267;BME280;46125;61.360;-149.532;2023-05-16T08:30:57;100372.60;;;10.94;39.58
60267;BME280;46125;61.360;-149.532;2023-05-16T08:33:25;100365.62;;;10.96;40.40
60267;BME280;46125;61.360;-149.532;2023-05-16T08:35:54;100364.90;;;11.16;39.40
60267;BME280;46125;61.360;-149.532;2023-05-16T08:38:23;100364.24;;;11.48;38.11
60267;BME280;46125;61.360;-149.532;2023-05-16T08:40:51;100354.12;;;11.32;37.30
60267;BME280;46125;61.360;-149.532;2023-05-16T08:43:20;100355.76;;;12.45;36.13
60267;BME280;46125;61.360;-149.532;2023-05-16T08:45:49;100356.38;;;11.59;38.19
60267;BME280;46125;61.360;-149.532;2023-05-16T08:48:22;100356.51;;;11.46;38.09
60267;BME280;46125;61.360;-149.532;2023-05-16T08:50:50;100348.01;;;11.07;38.57
60267;BME280;46125;61.360;-149.532;2023-05-16T08:56:07;100343.26;;;11.32;38.43
60267;BME280;46125;61.360;-149.532;2023-05-16T08:58:36;100337.95;;;11.55;36.41
60267;BME280;46125;61.360;-149.532;2023-05-16T09:01:05;100334.51;;;11.69;37.83
60267;BME280;46125;61.360;-149.532;2023-05-16T09:03:35;100333.02;;;12.04;37.61
60267;BME280;46125;61.360;-149.532;2023-05-16T09:06:05;100344.98;;;12.02;38.04
60267;BME280;46125;61.360;-149.532;2023-05-16T09:08:33;100334.69;;;11.50;38.02
60267;BME280;46125;61.360;-149.532;2023-05-16T09:11:02;100338.59;;;11.76;38.25
60267;BME280;46125;61.360;-149.532;2023-05-16T09:13:30;100345.38;;;11.51;39.11
60267;BME280;46125;61.360;-149.532;2023-05-16T09:16:17;100345.42;;;11.61;38.53
60267;BME280;46125;61.360;-149.532;2023-05-16T09:18:52;100346.92;;;11.62;38.57
60267;BME280;46125;61.360;-149.532;2023-05-16T09:21:21;100351.13;;;12.73;36.79
60267;BME280;46125;61.360;-149.532;2023-05-16T09:23:50;100356.28;;;12.66;36.63
60267;BME280;46125;61.360;-149.532;2023-05-16T09:26:19;100358.13;;;12.18;37.40
60267;BME280;46125;61.360;-149.532;2023-05-16T09:28:47;100360.81;;;12.71;36.02
60267;BME280;46125;61.360;-149.532;2023-05-16T09:31:25;100361.56;;;12.79;37.15
60267;BME280;46125;61.360;-149.532;2023-05-16T09:33:55;100353.99;;;11.48;38.91
60267;BME280;46125;61.360;-149.532;2023-05-16T09:36:24;100347.96;;;13.54;35.62
60267;BME280;46125;61.360;-149.532;2023-05-16T09:38:53;100345.16;;;13.12;35.00
60267;BME280;46125;61.360;-149.532;2023-05-16T09:41:22;100353.34;;;13.11;35.14
60267;BME280;46125;61.360;-149.532;2023-05-16T09:43:50;100361.57;;;12.69;36.31
60267;BME280;46125;61.360;-149.532;2023-05-16T09:46:18;100363.23;;;12.10;37.88
60267;BME280;46125;61.360;-149.532;2023-05-16T09:48:54;100365.63;;;12.52;36.92
60267;BME280;46125;61.360;-149.532;2023-05-16T09:51:22;100353.31;;;11.67;38.95
60267;BME280;46125;61.360;-149.532;2023-05-16T09:53:51;100357.00;;;11.08;40.38
60267;BME280;46125;61.360;-149.532;2023-05-16T09:56:19;100359.87;;;11.39;39.40
60267;BME280;46125;61.360;-149.532;2023-05-16T09:58:51;100356.23;;;11.57;38.45
60267;BME280;46125;61.360;-149.532;2023-05-16T10:01:20;100351.42;;;11.83;38.66
60267;BME280;46125;61.360;-149.532;2023-05-16T10:03:50;100353.54;;;11.78;38.45
60267;BME280;46125;61.360;-149.532;2023-05-16T10:06:19;100359.89;;;12.16;38.24
60267;BME280;46125;61.360;-149.532;2023-05-16T10:08:48;100353.90;;;11.84;37.69
60267;BME280;46125;61.360;-149.532;2023-05-16T10:11:18;100354.00;;;12.00;37.86
60267;BME280;46125;61.360;-149.532;2023-05-16T10:13:47;100353.55;;;11.53;38.36
60267;BME280;46125;61.360;-149.532;2023-05-16T10:16:21;100358.00;;;12.27;38.42
60267;BME280;46125;61.360;-149.532;2023-05-16T10:18:52;100349.87;;;12.88;36.78
60267;BME280;46125;61.360;-149.532;2023-05-16T10:21:22;100336.81;;;13.03;35.78
60267;BME280;46125;61.360;-149.532;2023-05-16T10:23:57;100347.92;;;12.69;37.06
60267;BME280;46125;61.360;-149.532;2023-05-16T10:26:26;100348.75;;;11.44;38.96
60267;BME280;46125;61.360;-149.532;2023-05-16T10:28:55;100342.74;;;12.76;35.58
60267;BME280;46125;61.360;-149.532;2023-05-16T10:31:24;100339.83;;;12.33;35.86
60267;BME280;46125;61.360;-149.532;2023-05-16T10:33:53;100338.75;;;12.95;34.99
60267;BME280;46125;61.360;-149.532;2023-05-16T10:36:22;100337.60;;;13.56;34.39
60267;BME280;46125;61.360;-149.532;2023-05-16T10:38:51;100336.89;;;13.41;34.90
60267;BME280;46125;61.360;-149.532;2023-05-16T10:41:21;100337.11;;;13.23;34.97
60267;BME280;46125;61.360;-149.532;2023-05-16T10:43:56;100338.41;;;11.40;38.48
60267;BME280;46125;61.360;-149.532;2023-05-16T10:46:27;100336.82;;;11.46;38.15
60267;BME280;46125;61.360;-149.532;2023-05-16T10:48:56;100339.72;;;10.53;40.94
60267;BME280;46125;61.360;-149.532;2023-05-16T10:51:40;100333.28;;;11.41;39.19
60267;BME280;46125;61.360;-149.532;2023-05-16T10:54:10;100330.88;;;10.72;41.40
60267;BME280;46125;61.360;-149.532;2023-05-16T10:56:39;100332.19;;;10.55;43.21
60267;BME280;46125;61.360;-149.532;2023-05-16T10:59:23;100338.79;;;11.31;40.21
60267;BME280;46125;61.360;-149.532;2023-05-16T11:01:53;100329.72;;;12.05;39.21
60267;BME280;46125;61.360;-149.532;2023-05-16T11:04:21;100330.29;;;9.94;43.39
60267;BME280;46125;61.360;-149.532;2023-05-16T11:06:51;100331.43;;;12.30;39.25
60267;BME280;46125;61.360;-149.532;2023-05-16T11:09:22;100317.99;;;11.67;40.34
60267;BME280;46125;61.360;-149.532;2023-05-16T11:11:57;100323.85;;;12.07;40.01
60267;BME280;46125;61.360;-149.532;2023-05-16T11:14:28;100323.24;;;12.38;38.84
60267;BME280;46125;61.360;-149.532;2023-05-16T11:17:03;100305.60;;;11.24;40.36
60267;BME280;46125;61.360;-149.532;2023-05-16T11:19:40;100309.13;;;11.76;39.69
60267;BME280;46125;61.360;-149.532;2023-05-16T11:22:12;100308.77;;;12.20;39.49
60267;BME280;46125;61.360;-149.532;2023-05-16T11:24:49;100307.15;;;12.39;38.69
60267;BME280;46125;61.360;-149.532;2023-05-16T11:27:24;100299.40;;;12.82;37.97
60267;BME280;46125;61.360;-149.532;2023-05-16T11:29:53;100294.67;;;13.00;37.84
60267;BME280;46125;61.360;-149.532;2023-05-16T11:32:23;100281.96;;;12.70;38.16
60267;BME280;46125;61.360;-149.532;2023-05-16T11:34:52;100277.78;;;12.36;38.05
60267;BME280;46125;61.360;-149.532;2023-05-16T11:37:21;100272.72;;;12.07;41.13
60267;BME280;46125;61.360;-149.532;2023-05-16T11:39:50;100264.56;;;10.01;43.99
60267;BME280;46125;61.360;-149.532;2023-05-16T11:42:18;100245.99;;;9.59;44.36
60267;BME280;46125;61.360;-149.532;2023-05-16T11:44:46;100242.49;;;10.73;41.51
60267;BME280;46125;61.360;-149.532;2023-05-16T11:47:15;100237.73;;;10.86;39.80
60267;BME280;46125;61.360;-149.532;2023-05-16T11:49:44;100243.11;;;10.95;39.76
60267;BME280;46125;61.360;-149.532;2023-05-16T11:52:12;100228.65;;;10.88;40.15
60267;BME280;46125;61.360;-149.532;2023-05-16T11:54:41;100241.37;;;10.71;42.06
60267;BME280;46125;61.360;-149.532;2023-05-16T11:57:09;100232.88;;;10.70;41.45
60267;BME280;46125;61.360;-149.532;2023-05-16T11:59:38;100233.75;;;11.14;39.97
60267;BME280;46125;61.360;-149.532;2023-05-16T12:02:06;100236.49;;;10.85;41.26
60267;BME280;46125;61.360;-149.532;2023-05-16T12:04:35;100233.52;;;10.96;39.53
60267;BME280;46125;61.360;-149.532;2023-05-16T12:07:03;100223.85;;;11.88;38.98
60267;BME280;46125;61.360;-149.532;2023-05-16T12:09:32;100214.11;;;11.93;38.43
60267;BME280;46125;61.360;-149.532;2023-05-16T12:12:04;100213.72;;;11.84;37.99
60267;BME280;46125;61.360;-149.532;2023-05-16T12:14:34;100208.65;;;11.82;38.45
60267;BME280;46125;61.360;-149.532;2023-05-16T12:17:04;100213.63;;;12.93;37.08
60267;BME280;46125;61.360;-149.532;2023-05-16T12:19:32;100205.25;;;12.31;37.58
60267;BME280;46125;61.360;-149.532;2023-05-16T12:22:01;100195.79;;;11.65;37.18
60267;BME280;46125;61.360;-149.532;2023-05-16T12:24:30;100204.93;;;11.82;39.95
60267;BME280;46125;61.360;-149.532;2023-05-16T12:26:59;100196.07;;;9.19;43.30
60267;BME280;46125;61.360;-149.532;2023-05-16T12:29:27;100202.35;;;10.27;43.38
60267;BME280;46125;61.360;-149.532;2023-05-16T12:31:56;100199.62;;;10.63;43.87
60267;BME280;46125;61.360;-149.532;2023-05-16T12:34:28;100202.62;;;10.87;42.45
60267;BME280;46125;61.360;-149.532;2023-05-16T12:36:58;100194.85;;;10.14;43.27